createdAt,value
2023-03-08T00:01:51.077Z,5.20
2023-03-08T00:06:53.478Z,5.20
2023-03-08T00:11:56.984Z,5.20
2023-03-08T00:16:59.278Z,5.10
2023-03-08T00:22:01.289Z,5.20
2023-03-08T00:27:05.153Z,5.20
2023-03-08T00:32:07.820Z,5.10
2023-03-08T00:37:10.320Z,5.10
2023-03-08T00:42:14.139Z,5.00
2023-03-08T00:47:17.155Z,4.90
2023-03-08T00:52:19.199Z,4.90
2023-03-08T00:57:22.973Z,4.80
2023-03-08T01:02:25.209Z,4.80
2023-03-08T01:07:28.714Z,4.80
2023-03-08T01:12:33.719Z,4.80
2023-03-08T01:17:36.481Z,4.90
2023-03-08T01:22:38.899Z,5.00
2023-03-08T01:27:42.590Z,5.00
2023-03-08T01:32:46.633Z,5.00
2023-03-08T01:37:53.753Z,4.90
2023-03-08T01:42:59.889Z,4.80
2023-03-08T01:48:02.564Z,4.80
2023-03-08T01:53:06.877Z,4.70
2023-03-08T01:58:10.531Z,4.80
2023-03-08T02:03:13.862Z,4.70
2023-03-08T02:08:16.419Z,4.70
2023-03-08T02:13:22.346Z,4.50
2023-03-08T02:18:27.536Z,4.30
2023-03-08T02:23:31.328Z,4.20
2023-03-08T02:28:34.866Z,4.10
2023-03-08T02:33:37.203Z,4.00
2023-03-08T02:38:40.720Z,3.90
2023-03-08T02:43:42.930Z,3.70
2023-03-08T02:48:46.356Z,3.60
2023-03-08T02:53:49.683Z,3.60
2023-03-08T02:58:52.120Z,3.50
2023-03-08T03:03:56.107Z,3.40
2023-03-08T03:08:59.574Z,3.40
2023-03-08T03:14:02.417Z,3.40
2023-03-08T03:19:04.777Z,3.10
2023-03-08T03:24:08.805Z,2.80
2023-03-08T03:29:11.669Z,2.70
2023-03-08T03:34:13.583Z,2.60
2023-03-08T03:39:17.019Z,2.70
2023-03-08T03:44:19.350Z,2.80
2023-03-08T03:49:21.567Z,2.80
2023-03-08T03:54:25.049Z,2.70
2023-03-08T03:59:27.449Z,2.50
2023-03-08T04:04:29.656Z,2.50
2023-03-08T04:09:33.479Z,2.50
2023-03-08T04:14:35.894Z,2.50
2023-03-08T04:19:38.247Z,2.50
2023-03-08T04:24:42.097Z,2.70
2023-03-08T04:29:44.518Z,2.80
2023-03-08T04:34:46.756Z,3.00
2023-03-08T04:39:50.310Z,3.00
2023-03-08T04:44:52.650Z,3.10
2023-03-08T04:49:55.632Z,3.70
2023-03-08T04:55:00.646Z,4.20
2023-03-08T05:00:05.270Z,4.30
2023-03-08T05:05:08.169Z,4.30
2023-03-08T05:10:12.923Z,4.40
2023-03-08T05:15:14.918Z,4.50
2023-03-08T05:20:17.332Z,4.60
2023-03-08T05:25:20.742Z,4.60
2023-03-08T05:30:23.313Z,4.60
2023-03-08T05:35:25.411Z,4.50
2023-03-08T05:40:28.954Z,4.50
2023-03-08T05:45:31.307Z,4.50
2023-03-08T05:50:33.482Z,4.30
2023-03-08T05:55:37.722Z,4.30
2023-03-08T06:01:16.857Z,4.50
2023-03-08T06:06:28.259Z,5.00
2023-03-08T06:11:32.143Z,5.10
2023-03-08T06:16:34.232Z,5.20
2023-03-08T06:21:36.616Z,5.10
2023-03-08T06:26:40.527Z,5.10
2023-03-08T06:31:42.942Z,5.10
2023-03-08T06:36:45.259Z,5.20
2023-03-08T06:41:48.710Z,5.20
2023-03-08T06:46:50.731Z,5.20
2023-03-08T06:51:53.140Z,5.30
2023-03-08T06:56:56.789Z,5.30
2023-03-08T07:01:58.780Z,5.50
2023-03-08T07:07:01.133Z,5.60
2023-03-08T07:12:05.304Z,5.70
2023-03-08T07:17:08.044Z,5.90
2023-03-08T07:22:10.648Z,6.10
2023-03-08T07:27:14.397Z,6.00
2023-03-08T07:32:16.876Z,6.00
2023-03-08T07:37:19.374Z,5.70
2023-03-08T07:42:22.978Z,5.90
2023-03-08T07:47:25.018Z,6.30
2023-03-08T07:52:29.101Z,6.50
2023-03-08T07:57:33.070Z,6.70
2023-03-08T08:02:35.329Z,7.00
2023-03-08T08:07:37.804Z,7.20
2023-03-08T08:12:41.653Z,7.20
2023-03-08T08:17:43.822Z,7.20
2023-03-08T08:22:46.110Z,7.30
2023-03-08T08:27:51.671Z,7.40
2023-03-08T08:32:54.253Z,7.40
2023-03-08T08:37:56.838Z,7.10
2023-03-08T08:43:00.373Z,7.00
2023-03-08T08:48:02.757Z,7.30
2023-03-08T08:53:05.330Z,7.50
2023-03-08T08:58:09.273Z,7.40
2023-03-08T09:03:11.993Z,7.20
2023-03-08T09:08:14.415Z,7.10
2023-03-08T09:13:18.123Z,7.10
2023-03-08T09:18:20.511Z,7.10
2023-03-08T09:23:22.935Z,7.10
2023-03-08T09:28:26.813Z,7.10
2023-03-08T09:33:28.902Z,7.00
2023-03-08T09:38:30.831Z,7.10
2023-03-08T09:43:46.708Z,7.10
2023-03-08T09:48:51.781Z,7.00
2023-03-08T09:54:00.881Z,6.80
2023-03-08T09:59:09.392Z,6.80
2023-03-08T10:04:35.550Z,6.90
2023-03-08T10:09:42.493Z,6.90
2023-03-08T10:14:50.608Z,7.20
2023-03-08T10:19:58.018Z,7.20
2023-03-08T10:25:03.492Z,7.30
2023-03-08T10:30:15.042Z,7.30
2023-03-08T10:35:18.556Z,7.20
2023-03-08T10:40:23.045Z,7.20
2023-03-08T10:45:28.149Z,9.10
2023-03-08T10:50:35.712Z,9.20
2023-03-08T10:55:45.310Z,8.70
2023-03-08T11:00:55.831Z,8.00
2023-03-08T11:06:00.721Z,7.70
2023-03-08T11:11:09.081Z,7.20
2023-03-08T11:16:39.464Z,7.70
2023-03-08T11:21:51.251Z,7.40
2023-03-08T11:27:06.900Z,7.10
2023-03-08T11:32:21.112Z,7.20
2023-03-08T11:37:32.353Z,7.70
2023-03-08T11:42:47.344Z,7.70
2023-03-08T11:48:12.586Z,8.00
2023-03-08T11:53:24.199Z,8.40
2023-03-08T11:58:33.743Z,8.50
2023-03-08T12:03:40.864Z,8.40
2023-03-08T12:08:48.291Z,8.30
2023-03-08T12:13:54.730Z,8.30
2023-03-08T12:19:06.748Z,8.30
2023-03-08T12:24:28.197Z,8.30
2023-03-08T12:29:36.825Z,8.40
2023-03-08T12:34:43.312Z,8.50
2023-03-08T12:39:57.328Z,9.00
2023-03-08T12:45:09.341Z,9.30
2023-03-08T12:50:18.995Z,9.30
2023-03-08T12:55:31.312Z,9.30
2023-03-08T13:00:36.917Z,9.30
2023-03-08T13:05:43.392Z,9.40
2023-03-08T13:11:01.115Z,9.50
2023-03-08T13:16:21.328Z,9.50
2023-03-08T13:21:35.636Z,9.90
2023-03-08T13:26:54.910Z,10.10
2023-03-08T13:31:57.850Z,10.20
2023-03-08T13:37:01.839Z,10.20
2023-03-08T13:42:09.194Z,10.40
2023-03-08T13:47:23.603Z,10.60
2023-03-08T13:52:39.327Z,10.70
2023-03-08T13:57:43.036Z,10.90
2023-03-08T14:02:48.273Z,11.10
2023-03-08T14:08:00.382Z,11.10
2023-03-08T14:13:03.200Z,11.40
2023-03-08T14:18:08.559Z,11.60
2023-03-08T14:23:26.226Z,11.40
2023-03-08T14:28:41.330Z,11.40
2023-03-08T14:33:44.970Z,11.30
2023-03-08T14:38:50.513Z,11.30
2023-03-08T14:43:53.373Z,11.30
2023-03-08T14:49:00.687Z,11.20
2023-03-08T14:54:05.942Z,11.30
2023-03-08T14:59:10.418Z,11.40
2023-03-08T15:04:19.515Z,11.40
2023-03-08T15:09:23.869Z,11.40
2023-03-08T15:14:26.451Z,11.40
2023-03-08T15:19:28.848Z,11.50
2023-03-08T15:24:32.602Z,11.60
2023-03-08T15:29:37.833Z,11.60
2023-03-08T15:34:41.031Z,11.50
2023-03-08T15:39:45.076Z,11.40
2023-03-08T15:44:47.620Z,11.40
2023-03-08T15:49:51.954Z,11.40
2023-03-08T15:54:55.642Z,11.40
2023-03-08T15:59:58.113Z,11.20
2023-03-08T16:05:00.768Z,11.10
2023-03-08T16:10:06.261Z,11.10
2023-03-08T16:15:09.592Z,11.10
2023-03-08T16:20:13.202Z,11.20
2023-03-08T16:25:17.018Z,11.40
2023-03-08T16:30:19.329Z,11.20
2023-03-08T16:35:21.936Z,11.70
2023-03-08T16:40:31.286Z,12.10
2023-03-08T16:45:33.692Z,12.20
2023-03-08T16:50:36.320Z,11.70
2023-03-08T16:55:40.124Z,11.90
2023-03-08T17:00:42.569Z,11.60
2023-03-08T17:05:46.694Z,12.00
2023-03-08T17:10:50.839Z,12.10
2023-03-08T17:15:53.588Z,12.50
2023-03-08T17:20:57.095Z,12.60
2023-03-08T17:26:04.712Z,12.30
2023-03-08T17:31:10.129Z,12.00
2023-03-08T17:36:14.900Z,11.70
2023-03-08T17:41:18.983Z,11.40
2023-03-08T17:46:24.338Z,11.40
2023-03-08T17:51:29.414Z,10.80
2023-03-08T17:56:36.695Z,10.50
2023-03-08T18:01:40.740Z,10.20
2023-03-08T18:06:45.193Z,9.80
2023-03-08T18:11:50.642Z,9.50
2023-03-08T18:16:53.501Z,9.40
2023-03-08T18:21:57.971Z,9.60
2023-03-08T18:27:05.892Z,10.30
2023-03-08T18:32:10.523Z,10.70
2023-03-08T18:37:13.605Z,10.80
2023-03-08T18:42:23.016Z,10.90
2023-03-08T18:47:28.096Z,11.40
2023-03-08T18:52:32.040Z,11.70
2023-03-08T18:57:37.160Z,11.80
2023-03-08T19:02:44.135Z,11.90
2023-03-08T19:07:48.187Z,11.80
2023-03-08T19:12:53.511Z,11.80
2023-03-08T19:17:58.931Z,11.10
2023-03-08T19:23:03.243Z,10.90
2023-03-08T19:28:10.397Z,10.70
2023-03-08T19:33:29.763Z,10.80
2023-03-08T19:38:34.426Z,10.80
2023-03-08T19:43:40.885Z,10.60
2023-03-08T19:48:45.411Z,10.50
2023-03-08T19:53:50.220Z,10.60
2023-03-08T19:58:59.056Z,10.80
2023-03-08T20:04:02.879Z,10.60
2023-03-08T20:09:08.847Z,10.60
2023-03-08T20:14:14.384Z,10.50
2023-03-08T20:19:18.592Z,10.70
2023-03-08T20:24:24.922Z,10.50
2023-03-08T20:29:29.445Z,10.20
2023-03-08T20:34:43.003Z,10.20
2023-03-08T20:39:46.436Z,10.60
2023-03-08T20:44:52.233Z,10.60
2023-03-08T20:49:56.792Z,10.70
2023-03-08T20:55:01.972Z,10.90
2023-03-08T21:00:10.622Z,10.90
2023-03-08T21:05:15.015Z,11.00
2023-03-08T21:10:24.091Z,11.00
2023-03-08T21:15:31.379Z,11.20
2023-03-08T21:20:39.265Z,11.30
2023-03-08T21:25:43.460Z,11.40
2023-03-08T21:30:48.121Z,11.50
2023-03-08T21:35:53.818Z,11.30
2023-03-08T21:40:56.956Z,11.00
2023-03-08T21:46:01.433Z,10.80
2023-03-08T21:51:06.181Z,10.80
2023-03-08T21:56:10.870Z,10.70
2023-03-08T22:01:21.850Z,11.00
2023-03-08T22:06:24.575Z,11.00
2023-03-08T22:11:27.984Z,11.00
2023-03-08T22:16:32.573Z,11.00
2023-03-08T22:21:35.389Z,11.90
2023-03-08T22:26:37.925Z,11.30
2023-03-08T22:31:41.971Z,10.60
2023-03-08T22:36:44.191Z,10.10
2023-03-08T22:41:46.148Z,9.70
2023-03-08T22:46:49.772Z,9.50
2023-03-08T22:51:52.564Z,9.50
2023-03-08T22:56:55.061Z,9.70
2023-03-08T23:01:59.681Z,9.70
2023-03-08T23:07:02.023Z,10.20
2023-03-08T23:12:06.630Z,9.90
2023-03-08T23:17:09.976Z,9.90
2023-03-08T23:22:12.565Z,9.80
2023-03-08T23:27:14.833Z,9.60
2023-03-08T23:32:18.448Z,9.30
2023-03-08T23:37:21.109Z,9.40
2023-03-08T23:42:23.317Z,9.30
2023-03-08T23:47:26.771Z,9.50
2023-03-08T23:52:29.566Z,9.40
2023-03-08T23:57:31.538Z,9.30
